Time;durP1;ratioP1;P1;durP2;ratioP2;P2;SDS_P1;SDS_P2;PMS_P1;PMS_P2;Temp;Humidity;BMP_temperature;BMP_pressure;BME280_temperature;BME280_humidity;BME280_pressure;Samples;Min_cycle;Max_cycle;Signal;HPM_P1;HPM_P2
2022/09/30 00:00:05;;;;;;;4.57;3.53;;;;;;;;;;5011720;28;20472;-80
2022/09/30 00:02:32;;;;;;;4.77;3.87;;;;;;;;;;5012777;28;20512;-78
2022/09/30 00:04:59;;;;;;;5.40;3.87;;;;;;;;;;5011814;28;20507;-78
2022/09/30 00:07:26;;;;;;;7.20;3.87;;;;;;;;;;5012819;28;20456;-80
2022/09/30 00:09:55;;;;;;;6.00;4.10;;;;;;;;;;5011552;28;20499;-80
2022/09/30 00:12:22;;;;;;;5.30;3.83;;;;;;;;;;5011767;28;20472;-80
2022/09/30 00:14:49;;;;;;;5.60;3.77;;;;;;;;;;5012600;28;20838;-80
2022/09/30 00:17:16;;;;;;;4.80;4.10;;;;;;;;;;5012804;28;20460;-80
2022/09/30 00:19:43;;;;;;;5.70;4.43;;;;;;;;;;5011422;28;20455;-80
2022/09/30 00:22:10;;;;;;;4.93;3.57;;;;;;;;;;5012285;28;20453;-80
2022/09/30 00:24:38;;;;;;;6.83;4.10;;;;;;;;;;5008773;28;20472;-81
2022/09/30 00:27:06;;;;;;;5.13;3.60;;;7.60;99.90;;;;;;5012263;28;20547;-80
2022/09/30 00:29:33;;;;;;;5.90;4.03;;;;;;;;;;5012645;28;20475;-80
2022/09/30 00:32:00;;;;;;;6.20;3.47;;;;;;;;;;5012264;28;20554;-81
2022/09/30 00:34:27;;;;;;;5.33;4.60;;;;;;;;;;5011436;28;20456;-81
2022/09/30 00:36:55;;;;;;;7.40;4.70;;;7.60;99.90;;;;;;5015244;28;20472;-81
2022/09/30 00:39:24;;;;;;;4.60;3.77;;;7.70;99.90;;;;;;5016799;28;20487;-81
2022/09/30 00:41:53;;;;;;;5.03;3.77;;;9.60;99.90;;;;;;5016504;28;20563;-81
2022/09/30 00:44:56;;;;;;;6.73;4.00;;;7.70;99.90;;;;;;5016787;28;20456;-81
2022/09/30 00:47:40;;;;;;;5.93;3.80;;;7.70;99.90;;;;;;4936032;29;20541;-81
2022/09/30 00:50:15;;;;;;;4.83;3.60;;;7.80;99.90;;;;;;4934584;29;20495;-81
2022/09/30 00:52:44;;;;;;;4.53;3.77;;;7.80;99.90;;;;;;4987015;28;20456;-81
2022/09/30 00:55:25;;;;;;;6.80;4.27;;;7.70;99.90;;;;;;5014884;28;20552;-81
2022/09/30 00:57:52;;;;;;;5.27;3.57;;;;;;;;;;5016646;28;20975;-81
2022/09/30 01:00:21;;;;;;;8.30;4.60;;;;;;;;;;5016685;28;20456;-80
2022/09/30 01:02:48;;;;;;;5.40;4.00;;;7.70;99.90;;;;;;5016490;28;20479;-81
2022/09/30 01:05:15;;;;;;;6.90;5.03;;;;;;;;;;5015245;28;20487;-81
2022/09/30 01:07:43;;;;;;;4.87;4.40;;;;;;;;;;5015548;28;20471;-81
2022/09/30 01:10:10;;;;;;;5.60;4.63;;;;;;;;;;5014585;28;20475;-80
2022/09/30 01:12:37;;;;;;;7.33;5.27;;;;;;;;;;5013400;28;20470;-81
2022/09/30 01:15:04;;;;;;;5.77;4.70;;;;;;;;;;5016262;28;20441;-81
2022/09/30 01:17:41;;;;;;;7.53;4.83;;;7.90;99.90;;;;;;5016492;28;20525;-81
2022/09/30 01:20:47;;;;;;;5.47;4.50;;;7.90;99.90;;;;;;5014112;28;20467;-81
2022/09/30 01:23:38;;;;;;;6.37;4.77;;;7.90;99.90;;;;;;5016180;28;20932;-81
2022/09/30 01:26:34;;;;;;;6.80;5.17;;;8.00;99.90;;;;;;5016009;28;20448;-81
2022/09/30 01:29:27;;;;;;;8.60;5.13;;;8.00;99.90;;;;;;5011924;28;20456;-81
2022/09/30 01:32:02;;;;;;;7.73;5.20;;;8.00;99.90;;;;;;4959741;28;20493;-81
2022/09/30 01:34:41;;;;;;;7.70;5.10;;;8.00;99.90;;;;;;4995230;28;20459;-80
2022/09/30 01:37:15;;;;;;;8.07;4.70;;;8.00;99.90;;;;;;5011446;28;20464;-81
2022/09/30 01:39:51;;;;;;;9.73;4.80;;;8.00;99.90;;;;;;5015771;28;20466;-81
2022/09/30 01:42:25;;;;;;;5.90;4.70;;;8.00;99.90;;;;;;5015656;28;20452;-80
2022/09/30 01:45:01;;;;;;;8.30;5.37;;;8.00;99.90;;;;;;5015735;28;20448;-81
2022/09/30 01:47:32;;;;;;;8.53;5.20;;;8.00;99.90;;;;;;5014374;28;20448;-80
2022/09/30 01:50:05;;;;;;;8.27;5.60;;;8.00;99.90;;;;;;5014067;28;20824;-81
2022/09/30 01:52:40;;;;;;;7.10;5.50;;;8.00;99.90;;;;;;5015429;28;20475;-80
2022/09/30 01:55:13;;;;;;;7.53;5.40;;;8.00;99.90;;;;;;5015733;28;20447;-81
2022/09/30 01:57:47;;;;;;;7.40;6.00;;;8.00;99.90;;;;;;5013613;28;20607;-81
2022/09/30 02:00:15;;;;;;;8.07;4.87;;;;;;;;;;5014623;28;20468;-81
2022/09/30 02:02:48;;;;;;;4.90;4.40;;;7.90;99.90;;;;;;5015464;28;21039;-81
2022/09/30 02:05:20;;;;;;;5.87;5.27;;;8.00;99.90;;;;;;5013982;28;20484;-81
2022/09/30 02:07:53;;;;;;;5.77;4.63;;;8.00;99.90;;;;;;5015563;28;20460;-81
2022/09/30 02:10:25;;;;;;;7.23;5.47;;;8.00;99.90;;;;;;5015485;28;20484;-81
2022/09/30 02:12:56;;;;;;;6.53;5.40;;;8.20;99.90;;;;;;5015217;28;20457;-81
2022/09/30 02:15:28;;;;;;;7.37;5.77;;;7.90;99.90;;;;;;5013049;28;20550;-80
2022/09/30 02:18:02;;;;;;;7.17;6.33;;;7.90;99.90;;;;;;5015124;28;20448;-81
2022/09/30 02:20:33;;;;;;;10.60;6.03;;;8.00;99.90;;;;;;5013888;28;20927;-81
2022/09/30 02:23:04;;;;;;;5.83;5.10;;;7.90;99.90;;;;;;5014032;28;20471;-80
2022/09/30 02:25:35;;;;;;;6.33;5.43;;;7.90;99.90;;;;;;5015065;28;20459;-81
2022/09/30 02:28:07;;;;;;;7.60;6.20;;;8.20;99.90;;;;;;5012929;28;20468;-81
2022/09/30 02:30:36;;;;;;;7.90;6.20;;;7.70;99.90;;;;;;5014845;28;20448;-81
2022/09/30 02:33:09;;;;;;;10.90;6.00;;;7.90;99.90;;;;;;5015026;28;20457;-81
2022/09/30 02:35:39;;;;;;;6.50;5.77;;;8.00;99.90;;;;;;5013766;28;20455;-81
2022/09/30 02:38:13;;;;;;;7.20;5.70;;;8.00;99.90;;;;;;5014834;28;20912;-81
2022/09/30 02:40:46;;;;;;;9.33;5.40;;;7.90;99.90;;;;;;5014785;28;20504;-81
2022/09/30 02:43:15;;;;;;;11.47;6.30;;;7.90;99.90;;;;;;5013876;28;20845;-81
2022/09/30 02:45:49;;;;;;;8.97;5.77;;;7.90;99.90;;;;;;5014707;28;20452;-81
2022/09/30 02:48:28;;;;;;;8.23;6.33;;;7.90;99.90;;;;;;5014710;28;20824;-81
2022/09/30 02:51:02;;;;;;;8.50;6.87;;;7.80;99.90;;;;;;4993840;28;21031;-81
2022/09/30 02:53:36;;;;;;;7.63;6.70;;;7.80;99.90;;;;;;4995138;28;20535;-81
2022/09/30 02:56:17;;;;;;;7.93;6.60;;;7.80;99.90;;;;;;5001366;28;20531;-81
2022/09/30 02:58:44;;;;;;;8.50;6.70;;;;;;;;;;5014147;28;20448;-80
2022/09/30 03:01:13;;;;;;;10.07;6.70;;;7.80;99.90;;;;;;5014446;28;20475;-81
2022/09/30 03:03:44;;;;;;;9.03;6.30;;;7.80;99.90;;;;;;5013071;28;20963;-81
2022/09/30 03:06:12;;;;;;;8.23;6.60;;;7.80;99.90;;;;;;5014271;28;20485;-81
2022/09/30 03:08:39;;;;;;;7.97;6.47;;;;;;;;;;5014413;28;20455;-81
2022/09/30 03:11:07;;;;;;;10.17;6.80;;;7.80;99.90;;;;;;5011123;28;20491;-81
2022/09/30 03:14:03;;;;;;;7.97;6.30;;;7.80;99.90;;;;;;5014250;28;20452;-81
2022/09/30 03:16:46;;;;;;;11.93;6.37;;;7.80;99.90;;;;;;5014198;28;20448;-81
2022/09/30 03:19:31;;;;;;;8.40;6.50;;;7.80;99.90;;;;;;5012841;28;20452;-81
2022/09/30 03:22:15;;;;;;;6.40;5.47;;;7.80;99.90;;;;;;5013951;28;20448;-81
2022/09/30 03:25:02;;;;;;;8.60;6.27;;;7.80;99.90;;;;;;5012876;28;20493;-80
2022/09/30 03:27:37;;;;;;;7.00;5.70;;;7.80;99.90;;;;;;4994311;28;20444;-81
2022/09/30 03:30:06;;;;;;;11.27;6.70;;;7.80;99.90;;;;;;4994312;28;20535;-81
2022/09/30 03:32:58;;;;;;;7.70;6.10;;;7.80;99.90;;;;;;4994143;28;20493;-81
2022/09/30 03:35:33;;;;;;;8.77;6.60;;;7.80;99.90;;;;;;4992974;28;20841;-81
2022/09/30 03:38:10;;;;;;;9.23;6.77;;;7.70;99.90;;;;;;4994220;28;20460;-80
2022/09/30 03:40:43;;;;;;;9.20;6.80;;;7.70;99.90;;;;;;5011304;28;20464;-80
2022/09/30 03:43:19;;;;;;;12.93;7.27;;;7.70;99.90;;;;;;5010440;28;20468;-80
2022/09/30 03:45:52;;;;;;;7.40;6.60;;;7.60;99.90;;;;;;5008525;28;20829;-80
2022/09/30 03:48:21;;;;;;;7.43;6.40;;;7.60;99.90;;;;;;5011480;28;20832;-81
2022/09/30 03:50:49;;;;;;;14.80;6.30;;;;;;;;;;5009941;28;20471;-80
2022/09/30 03:53:16;;;;;;;8.67;6.20;;;;;;;;;;5013375;28;20452;-81
2022/09/30 03:55:47;;;;;;;9.53;6.73;;;7.60;99.90;;;;;;5012651;28;20456;-81
2022/09/30 03:58:14;;;;;;;8.03;5.73;;;;;;;;;;4993852;28;20512;-81
2022/09/30 04:00:47;;;;;;;7.00;5.97;;;7.60;99.90;;;;;;4993667;28;20457;-78
2022/09/30 04:03:14;;;;;;;9.27;6.20;;;;;;;;;;4993703;28;20453;-78
2022/09/30 04:05:41;;;;;;;13.07;5.60;;;;;;;;;;4992471;28;20477;-78
2022/09/30 04:08:10;;;;;;;6.20;5.50;;;7.60;99.90;;;;;;5002774;28;20514;-78
2022/09/30 04:10:37;;;;;;;6.67;5.93;;;;;;;;;;5012444;28;21026;-78
2022/09/30 04:13:04;;;;;;;7.30;6.07;;;;;;;;;;5013148;28;20501;-78
2022/09/30 04:15:31;;;;;;;14.87;6.73;;;;;;;;;;5013145;28;20548;-78
2022/09/30 04:17:59;;;;;;;6.70;5.93;;;7.60;99.90;;;;;;5013126;28;20460;-78
2022/09/30 04:20:26;;;;;;;9.50;7.00;;;;;;;;;;5011906;28;20514;-78
2022/09/30 04:22:53;;;;;;;11.10;6.70;;;;;;;;;;5013108;28;20460;-78
2022/09/30 04:25:21;;;;;;;8.80;5.80;;;7.70;99.90;;;;;;5012879;28;20452;-78
2022/09/30 04:27:48;;;;;;;9.73;6.33;;;;;;;;;;5013046;28;20959;-79
2022/09/30 04:30:15;;;;;;;8.47;6.60;;;;;;;;;;5010310;28;20474;-79
2022/09/30 04:32:44;;;;;;;11.27;6.27;;;;;;;;;;5012944;28;20495;-79
2022/09/30 04:35:11;;;;;;;12.30;8.40;;;;;;;;;;5011746;28;20452;-79
2022/09/30 04:37:42;;;;;;;9.80;7.87;;;7.40;99.90;;;;;;5012602;28;20445;-79
2022/09/30 04:40:09;;;;;;;13.20;9.30;;;;;;;;;;5012846;28;20444;-79
2022/09/30 04:42:38;;;;;;;15.93;10.20;;;7.70;99.90;;;;;;5012794;28;20943;-79
2022/09/30 04:45:05;;;;;;;15.33;10.60;;;;;;;;;;5012778;28;20444;-79
2022/09/30 04:47:33;;;;;;;16.50;11.30;;;;;;;;;;5012922;28;20960;-79
2022/09/30 04:50:00;;;;;;;14.57;9.73;;;;;;;;;;5011263;28;20539;-80
2022/09/30 04:52:27;;;;;;;14.70;10.57;;;;;;;;;;5012744;28;20496;-80
2022/09/30 04:54:54;;;;;;;19.40;9.23;;;;;;;;;;5012940;28;20449;-80
2022/09/30 04:57:21;;;;;;;13.80;8.67;;;;;;;;;;5012998;28;20452;-81
2022/09/30 04:59:50;;;;;;;11.20;8.57;;;6.80;99.90;;;;;;5012411;28;20487;-80
2022/09/30 05:02:17;;;;;;;8.80;6.90;;;;;;;;;;5010514;28;20980;-81
2022/09/30 05:04:44;;;;;;;10.30;8.40;;;;;;;;;;5011308;28;20480;-80
2022/09/30 05:07:12;;;;;;;14.03;7.87;;;;;;;;;;5011546;28;20468;-80
2022/09/30 05:09:39;;;;;;;13.10;8.03;;;;;;;;;;5012529;28;20452;-80
2022/09/30 05:12:07;;;;;;;10.50;7.83;;;;;;;;;;5012468;28;20488;-80
2022/09/30 05:14:34;;;;;;;10.83;8.47;;;;;;;;;;5004946;28;20491;-80
2022/09/30 05:17:02;;;;;;;10.20;6.90;;;6.80;99.90;;;;;;5012242;28;20494;-80
2022/09/30 05:19:29;;;;;;;9.10;7.30;;;6.70;99.90;;;;;;5011203;28;20940;-80
2022/09/30 05:21:56;;;;;;;8.93;7.90;;;;;;;;;;5013937;28;20452;-80
2022/09/30 05:24:24;;;;;;;11.03;7.43;;;;;;;;;;5014895;28;20492;-81
2022/09/30 05:26:51;;;;;;;9.50;6.90;;;;;;;;;;5015736;28;20455;-80
2022/09/30 05:29:18;;;;;;;8.63;7.20;;;;;;;;;;5015991;28;20452;-80
2022/09/30 05:31:45;;;;;;;11.43;8.20;;;;;;;;;;5015072;28;20545;-80
2022/09/30 05:34:15;;;;;;;9.43;7.27;;;;;;;;;;5014519;28;20445;-80
2022/09/30 05:36:42;;;;;;;11.80;8.60;;;;;;;;;;5015847;28;20463;-80
2022/09/30 05:39:10;;;;;;;9.90;7.27;;;;;;;;;;5015123;28;20494;-80
2022/09/30 05:41:37;;;;;;;11.93;8.60;;;;;;;;;;5017902;28;20445;-86
2022/09/30 05:44:07;;;;;;;12.13;8.73;;;;;;;;;;5017892;28;20444;-82
2022/09/30 05:46:34;;;;;;;9.77;8.00;;;;;;;;;;5021101;28;20453;-79
2022/09/30 05:49:01;;;;;;;10.47;7.67;;;;;;;;;;5017031;28;20815;-82
2022/09/30 05:51:30;;;;;;;11.93;8.07;;;;;;;;;;5017713;28;20448;-90
2022/09/30 05:53:57;;;;;;;11.40;9.20;;;;;;;;;;5018192;28;20476;-86
2022/09/30 05:56:24;;;;;;;13.33;8.97;;;;;;;;;;5016811;28;20480;-87
2022/09/30 05:58:51;;;;;;;13.50;9.87;;;;;;;;;;5012738;28;20445;-78
2022/09/30 06:01:18;;;;;;;14.10;9.00;;;;;;;;;;5011830;28;20488;-84
2022/09/30 06:03:46;;;;;;;16.87;9.43;;;;;;;;;;5009063;28;20468;-81
2022/09/30 06:06:13;;;;;;;11.30;8.43;;;;;;;;;;4994671;28;20580;-89
2022/09/30 06:08:43;;;;;;;13.50;8.30;;;9.20;99.90;;;;;;4996353;28;20460;-79
2022/09/30 06:11:11;;;;;;;11.60;8.07;;;9.50;99.90;;;;;;4996252;28;20861;-84
2022/09/30 06:13:39;;;;;;;9.73;7.77;;;;;;;;;;4995794;28;20842;-84
2022/09/30 06:16:07;;;;;;;11.23;7.50;;;9.50;99.90;;;;;;4997951;28;20471;-89
2022/09/30 06:18:34;;;;;;;9.57;8.50;;;;;;;;;;5014584;28;20675;-90
2022/09/30 06:21:02;;;;;;;14.33;7.83;;;9.70;99.90;;;;;;5014799;28;20463;-83
2022/09/30 06:23:29;;;;;;;13.80;10.87;;;;;;;;;;5013362;28;20837;-87
2022/09/30 06:25:58;;;;;;;15.47;10.60;;;;;;;;;;5010841;28;20474;-88
2022/09/30 06:28:26;;;;;;;9.80;7.90;;;;;;;;;;5014258;28;20464;-89
2022/09/30 06:30:53;;;;;;;16.47;14.77;;;;;;;;;;5014094;28;20473;-88
2022/09/30 06:33:21;;;;;;;14.07;10.50;;;12.10;99.90;;;;;;5013548;28;20585;-83
2022/09/30 06:35:48;;;;;;;11.33;10.23;;;;;;;;;;5012338;28;20468;-85
2022/09/30 06:38:16;;;;;;;15.10;8.10;;;;;;;;;;5011008;28;20468;-87
2022/09/30 06:40:43;;;;;;;21.27;19.13;;;;;;;;;;5012596;28;20571;-84
2022/09/30 06:43:11;;;;;;;15.70;8.57;;;12.00;99.90;;;;;;5013531;28;20472;-88
2022/09/30 06:45:38;;;;;;;11.00;8.97;;;;;;;;;;5014442;28;20445;-85
2022/09/30 06:48:07;;;;;;;18.90;10.53;;;;;;;;;;5014857;28;20464;-84
2022/09/30 06:50:34;;;;;;;48.83;41.53;;;;;;;;;;5013666;28;20964;-85
2022/09/30 06:53:05;;;;;;;24.00;13.80;;;11.90;99.90;;;;;;5013947;28;20484;-85
2022/09/30 06:55:32;;;;;;;10.13;9.03;;;;;;;;;;5014053;28;20457;-88
2022/09/30 06:58:00;;;;;;;21.37;16.93;;;;;;;;;;5014961;28;20862;-84
2022/09/30 07:00:28;;;;;;;19.90;10.07;;;11.80;99.90;;;;;;5012255;28;20487;-87
2022/09/30 07:02:56;;;;;;;29.77;21.40;;;;;;;;;;5009711;28;20463;-86
2022/09/30 07:05:24;;;;;;;16.90;12.20;;;;;;;;;;5012465;28;20492;-89
2022/09/30 07:07:51;;;;;;;16.03;13.37;;;;;;;;;;5013753;28;20456;-90
2022/09/30 07:10:18;;;;;;;14.83;10.73;;;;;;;;;;5014966;28;20449;-92
2022/09/30 07:12:45;;;;;;;15.03;10.00;;;;;;;;;;5015117;28;21176;-86
2022/09/30 07:15:12;;;;;;;16.77;11.13;;;;;;;;;;5006344;28;20465;-87
2022/09/30 07:17:40;;;;;;;70.87;48.33;;;11.40;99.90;;;;;;5010100;28;20448;-90
2022/09/30 07:20:08;;;;;;;117.77;62.77;;;11.50;99.90;;;;;;5014432;28;20445;-88
2022/09/30 07:22:35;;;;;;;56.80;34.23;;;;;;;;;;5010452;28;20480;-86
2022/09/30 07:25:03;;;;;;;39.30;25.57;;;11.30;99.90;;;;;;5009725;28;20460;-83
2022/09/30 07:27:32;;;;;;;34.30;22.03;;;11.10;99.90;;;;;;5014688;28;20444;-84
2022/09/30 07:30:01;;;;;;;40.60;25.93;;;;;;;;;;5013549;28;20462;-83
2022/09/30 07:32:28;;;;;;;37.67;22.57;;;;;;;;;;5011744;28;20473;-84
2022/09/30 07:34:56;;;;;;;386.17;266.60;;;11.00;99.90;;;;;;5006283;28;20473;-90
2022/09/30 07:37:25;;;;;;;15.27;10.50;;;10.90;99.90;;;;;;4972659;28;20464;-87
2022/09/30 07:39:52;;;;;;;17.23;14.27;;;;;;;;;;5003454;28;20476;-89
2022/09/30 07:42:21;;;;;;;18.90;13.27;;;10.90;99.90;;;;;;5014014;28;20469;-85
2022/09/30 07:44:50;;;;;;;13.17;10.53;;;;;;;;;;5010732;28;20460;-85
2022/09/30 07:47:18;;;;;;;21.53;19.13;;;;;;;;;;4980532;28;20470;-87
2022/09/30 07:49:45;;;;;;;15.17;11.40;;;;;;;;;;4973020;28;20935;-83
2022/09/30 07:52:14;;;;;;;12.97;9.97;;;10.80;99.90;;;;;;4985582;28;20828;-80
2022/09/30 07:54:42;;;;;;;12.40;10.10;;;10.70;99.90;;;;;;4993587;28;20453;-82
2022/09/30 07:57:09;;;;;;;11.60;9.03;;;;;;;;;;4993081;28;20450;-83
2022/09/30 07:59:38;;;;;;;15.40;10.57;;;10.60;99.90;;;;;;4993675;28;20988;-83
2022/09/30 08:02:10;;;;;;;21.67;11.87;;;10.50;99.90;;;;;;4993903;28;20454;-84
2022/09/30 08:04:38;;;;;;;17.87;12.27;;;;;;;;;;4989079;28;20489;-87
2022/09/30 08:07:05;;;;;;;26.50;14.33;;;;;;;;;;4992792;28;20476;-85
2022/09/30 08:09:33;;;;;;;20.23;14.10;;;10.60;99.90;;;;;;4993708;28;20461;-81
2022/09/30 08:12:02;;;;;;;18.70;13.03;;;10.80;99.90;;;;;;4992413;28;20465;-85
2022/09/30 08:14:30;;;;;;;20.87;18.20;;;;;;;;;;4991211;28;20495;-89
2022/09/30 08:16:59;;;;;;;22.37;20.27;;;;;;;;;;4993339;28;20459;-86
2022/09/30 08:19:27;;;;;;;16.20;12.83;;;10.90;99.90;;;;;;4992054;28;20496;-88
2022/09/30 08:21:54;;;;;;;17.13;11.90;;;10.80;99.90;;;;;;4991284;28;20469;-83
2022/09/30 08:24:22;;;;;;;19.30;12.83;;;;;;;;;;4991927;28;20469;-84
2022/09/30 08:26:50;;;;;;;18.80;14.47;;;10.80;99.90;;;;;;4993243;28;20532;-79
2022/09/30 08:29:18;;;;;;;15.70;11.50;;;;;;;;;;4993380;28;20463;-84
2022/09/30 08:31:45;;;;;;;15.03;11.10;;;;;;;;;;4991372;28;20461;-81
2022/09/30 08:34:12;;;;;;;14.80;11.73;;;;;;;;;;4992137;28;20493;-79
2022/09/30 08:36:39;;;;;;;16.27;12.77;;;;;;;;;;4992085;28;20475;-80
2022/09/30 08:39:06;;;;;;;16.97;12.80;;;;;;;;;;4991171;28;20469;-81
2022/09/30 08:41:45;;;;;;;16.40;12.17;;;11.50;99.90;;;;;;4992347;28;20472;-85
2022/09/30 08:44:31;;;;;;;22.87;14.10;;;11.60;99.90;;;;;;4978116;28;20882;-84
2022/09/30 08:47:06;;;;;;;16.13;12.70;;;11.70;99.90;;;;;;4977024;28;20549;-82
2022/09/30 08:49:46;;;;;;;23.33;14.07;;;12.00;99.90;;;;;;4978163;28;20464;-79
2022/09/30 08:52:19;;;;;;;18.10;13.70;;;12.50;99.90;;;;;;4977259;28;20468;-81
2022/09/30 08:54:50;;;;;;;18.13;13.00;;;12.70;99.90;;;;;;4978164;28;20474;-79
2022/09/30 08:57:17;;;;;;;21.83;13.20;;;;;;;;;;4982603;28;20461;-80
2022/09/30 08:59:48;;;;;;;20.20;14.80;;;13.80;99.90;;;;;;4995110;28;20564;-81
2022/09/30 09:02:21;;;;;;;15.23;13.00;;;14.10;99.90;;;;;;4996016;28;20980;-81
2022/09/30 09:04:51;;;;;;;16.30;12.97;;;14.60;99.90;;;;;;4995842;28;20477;-80
2022/09/30 09:07:38;;;;;;;13.80;12.27;;;14.90;99.90;;;;;;4996113;28;20469;-82
2022/09/30 09:10:21;;;;;;;15.93;11.47;;;15.00;99.90;;;;;;4997074;28;20488;-80
2022/09/30 09:12:58;;;;;;;14.13;11.40;;;16.30;99.90;;;;;;4996868;28;20493;-81
2022/09/30 09:15:48;;;;;;;15.40;12.40;;;16.70;99.40;;;;;;4996933;28;20452;-81
2022/09/30 09:18:37;;;;;;;12.93;9.80;;;16.30;96.00;;;;;;4996934;28;20453;-77
2022/09/30 09:21:18;;;;;;;14.17;11.10;;;16.50;98.80;;;;;;4995350;28;20477;-79
2022/09/30 09:23:45;;;;;;;11.13;9.53;;;;;;;;;;4995416;28;20472;-78
2022/09/30 09:26:15;;;;;;;11.13;9.30;;;16.80;96.30;;;;;;4996693;28;20457;-77
2022/09/30 09:28:50;;;;;;;25.13;20.63;;;16.90;95.50;;;;;;4996625;28;20452;-76
2022/09/30 09:31:20;;;;;;;30.43;23.07;;;17.30;95.20;;;;;;4996774;28;20440;-78
2022/09/30 09:33:47;;;;;;;11.30;10.13;;;;;;;;;;4993036;28;20500;-79
2022/09/30 09:36:25;;;;;;;12.43;10.10;;;17.30;95.30;;;;;;4996494;28;20457;-77
2022/09/30 09:39:07;;;;;;;13.07;10.87;;;17.40;95.20;;;;;;4996623;28;20457;-78
2022/09/30 09:41:42;;;;;;;11.50;10.40;;;17.40;94.40;;;;;;4994425;28;20449;-78
2022/09/30 09:44:19;;;;;;;12.10;10.20;;;17.60;94.60;;;;;;4989536;28;20960;-76
2022/09/30 09:46:50;;;;;;;9.70;6.73;;;17.60;92.00;;;;;;4996191;28;20465;-79
2022/09/30 09:49:32;;;;;;;8.33;5.67;;;18.40;86.20;;;;;;4994990;28;20445;-76
2022/09/30 09:52:23;;;;;;;7.90;5.23;;;17.20;91.30;;;;;;4993227;28;20465;-78
2022/09/30 09:54:55;;;;;;;6.10;5.50;;;17.70;91.90;;;;;;4994930;28;20497;-79
2022/09/30 09:57:26;;;;;;;7.83;6.17;;;17.90;89.50;;;;;;4994989;28;20492;-78
2022/09/30 09:59:58;;;;;;;6.17;5.57;;;17.60;85.40;;;;;;4994695;28;20485;-79
2022/09/30 10:02:30;;;;;;;8.13;5.60;;;17.40;92.20;;;;;;4995003;28;20465;-81
2022/09/30 10:05:02;;;;;;;6.20;5.60;;;;;;;;;;4993690;28;20528;-80
2022/09/30 10:07:31;;;;;;;6.60;5.20;;;17.10;92.10;;;;;;4994458;28;20885;-78
2022/09/30 10:10:16;;;;;;;6.17;5.07;;;17.60;87.50;;;;;;4990132;28;20941;-79
2022/09/30 10:12:44;;;;;;;7.70;5.30;;;;;;;;;;4991481;28;20500;-84
2022/09/30 10:15:22;;;;;;;10.30;6.20;;;18.00;83.50;;;;;;4994554;28;20450;-90
2022/09/30 10:17:56;;;;;;;6.57;5.90;;;17.40;87.10;;;;;;4977503;28;20906;-78
2022/09/30 10:20:30;;;;;;;7.40;6.70;;;16.80;91.50;;;;;;4989295;28;20902;-80
2022/09/30 10:23:08;;;;;;;8.80;6.33;;;16.50;91.50;;;;;;4994690;28;20457;-84
2022/09/30 10:25:35;;;;;;;6.60;5.70;;;;;;;;;;4994123;28;20460;-85
2022/09/30 10:28:04;;;;;;;6.93;6.13;;;17.80;92.40;;;;;;4987276;28;20505;-84
2022/09/30 10:30:43;;;;;;;8.40;5.90;;;17.70;92.00;;;;;;4994108;28;20684;-82
2022/09/30 10:33:26;;;;;;;7.70;6.07;;;16.60;90.80;;;;;;4994213;28;20481;-82
2022/09/30 10:35:57;;;;;;;6.70;5.70;;;14.90;98.50;;;;;;4994401;28;20536;-82
2022/09/30 10:38:27;;;;;;;8.60;5.80;;;15.10;96.30;;;;;;4995562;28;20551;-88
2022/09/30 10:40:55;;;;;;;6.10;5.50;;;;;;;;;;4992914;28;20441;-87
2022/09/30 10:43:25;;;;;;;6.77;4.90;;;17.70;91.90;;;;;;4989403;28;20972;-82
2022/09/30 10:45:53;;;;;;;7.90;4.37;;;;;;;;;;4993731;28;20469;-87
2022/09/30 10:48:24;;;;;;;5.00;4.47;;;18.00;91.10;;;;;;4994773;28;20488;-85
2022/09/30 10:50:53;;;;;;;4.90;4.40;;;19.00;89.70;;;;;;5001578;28;20460;-80
2022/09/30 10:53:23;;;;;;;6.50;4.00;;;18.90;90.60;;;;;;4994793;28;20485;-79
2022/09/30 10:55:50;;;;;;;4.77;4.37;;;;;;;;;;4993987;28;20463;-80
2022/09/30 10:58:32;;;;;;;5.30;4.80;;;19.10;81.60;;;;;;4994296;28;20476;-78
2022/09/30 11:01:06;;;;;;;5.97;4.30;;;19.40;87.20;;;;;;4979048;28;20487;-85
2022/09/30 11:03:40;;;;;;;4.13;3.70;;;19.20;83.60;;;;;;5013236;28;20467;-80
2022/09/30 11:06:10;;;;;;;6.10;4.30;;;18.70;84.70;;;;;;5013190;28;20519;-83
2022/09/30 11:08:47;;;;;;;6.23;3.17;;;19.20;85.00;;;;;;5003600;28;20456;-83
2022/09/30 11:11:15;;;;;;;3.97;3.03;;;;;;;;;;5013393;28;20963;-83
2022/09/30 11:13:48;;;;;;;4.43;2.70;;;19.10;86.60;;;;;;5014305;28;20515;-81
2022/09/30 11:16:19;;;;;;;3.83;2.80;;;;;;;;;;5013971;28;20448;-81
2022/09/30 11:18:53;;;;;;;6.20;2.67;;;19.30;77.40;;;;;;5005381;28;20971;-81
2022/09/30 11:21:25;;;;;;;1.83;1.73;;;17.90;77.20;;;;;;4995256;28;20456;-88
2022/09/30 11:23:57;;;;;;;2.90;1.93;;;18.00;77.40;;;;;;4998297;28;20831;-84
2022/09/30 11:26:35;;;;;;;2.20;2.00;;;18.50;67.30;;;;;;5014073;28;20444;-86
2022/09/30 11:29:15;;;;;;;2.47;2.27;;;19.00;79.50;;;;;;5014052;28;20452;-89
2022/09/30 11:31:48;;;;;;;7.00;3.30;;;18.90;82.50;;;;;;5012938;28;20456;-81
2022/09/30 11:34:33;;;;;;;4.47;3.47;;;19.40;81.70;;;;;;5012767;28;20495;-80
2022/09/30 11:37:08;;;;;;;3.83;2.80;;;19.80;81.10;;;;;;5010352;28;20459;-82
2022/09/30 11:40:03;;;;;;;2.70;2.37;;;19.80;78.80;;;;;;5013879;28;20955;-81
2022/09/30 11:42:37;;;;;;;3.17;2.90;;;19.50;80.80;;;;;;5013853;28;20456;-84
2022/09/30 11:45:14;;;;;;;2.80;2.50;;;19.70;79.60;;;;;;5011860;28;20468;-83
2022/09/30 11:47:56;;;;;;;2.87;2.57;;;19.10;68.80;;;;;;5005477;28;20464;-82
2022/09/30 11:50:33;;;;;;;3.17;2.33;;;18.70;76.10;;;;;;5011734;28;20452;-90
2022/09/30 11:53:12;;;;;;;3.30;2.40;;;18.30;81.50;;;;;;5013808;28;20448;-84
2022/09/30 11:55:53;;;;;;;4.27;3.23;;;18.40;82.90;;;;;;5012899;28;20943;-80
2022/09/30 11:58:23;;;;;;;6.00;3.90;;;18.00;85.60;;;;;;5006291;28;20571;-86
2022/09/30 12:00:55;;;;;;;8.13;3.80;;;18.00;85.40;;;;;;5008155;28;20484;-81
2022/09/30 12:03:30;;;;;;;4.03;2.80;;;18.30;80.30;;;;;;5006545;28;20484;-79
2022/09/30 12:06:03;;;;;;;3.87;2.40;;;18.40;80.80;;;;;;4992426;28;20480;-79
2022/09/30 12:08:32;;;;;;;2.73;2.30;;;;;;;;;;4993861;28;20449;-82
2022/09/30 12:11:00;;;;;;;3.90;3.10;;;;;;;;;;4999881;28;20480;-84
2022/09/30 12:13:31;;;;;;;3.07;2.30;;;18.40;75.30;;;;;;5007554;28;20507;-82
2022/09/30 12:16:02;;;;;;;2.73;2.37;;;17.80;74.60;;;;;;5013217;28;20480;-84
2022/09/30 12:18:36;;;;;;;3.60;2.87;;;18.50;69.70;;;;;;5009262;28;20940;-82
2022/09/30 12:21:17;;;;;;;3.13;2.00;;;19.00;59.50;;;;;;5012117;28;20463;-80
2022/09/30 12:23:48;;;;;;;2.37;2.00;;;19.20;70.10;;;;;;5012207;28;20499;-81
2022/09/30 12:26:16;;;;;;;2.27;1.77;;;19.10;70.30;;;;;;5012775;28;20452;-81
2022/09/30 12:31:51;;;;;;;3.53;1.40;;;18.70;69.70;;;;;;5012282;28;20486;-81
2022/09/30 12:34:31;;;;;;;2.33;1.97;;;17.90;74.20;;;;;;5008753;28;20562;-81
2022/09/30 12:37:09;;;;;;;2.87;2.30;;;18.10;73.30;;;;;;5010938;28;20492;-81
2022/09/30 12:40:10;;;;;;;2.70;1.97;;;18.70;63.40;;;;;;5010421;28;20492;-81
2022/09/30 12:43:13;;;;;;;6.90;1.97;;;18.00;67.50;;;;;;5010147;28;20849;-81
2022/09/30 12:46:04;;;;;;;2.47;2.10;;;17.10;65.40;;;;;;4994702;28;20469;-82
2022/09/30 12:48:37;;;;;;;2.40;2.20;;;16.80;77.40;;;;;;5003674;28;20487;-82
2022/09/30 12:51:05;;;;;;;2.97;2.23;;;;;;;;;;5011934;28;20448;-81
2022/09/30 12:53:36;;;;;;;10.67;2.30;;;16.00;77.50;;;;;;5008004;28;20490;-81
2022/09/30 12:56:06;;;;;;;1.90;1.70;;;15.80;76.50;;;;;;5009755;28;20491;-82
2022/09/30 12:58:37;;;;;;;2.20;1.90;;;15.90;79.20;;;;;;5012552;28;20452;-82
2022/09/30 13:01:11;;;;;;;2.60;2.17;;;16.10;80.60;;;;;;5009061;28;20484;-82
2022/09/30 13:03:45;;;;;;;3.30;2.00;;;;;;;;;;5008075;28;20516;-82
2022/09/30 13:06:15;;;;;;;2.10;1.90;;;15.80;79.10;;;;;;5002727;28;20522;-82
2022/09/30 13:08:46;;;;;;;4.13;1.90;;;15.50;78.50;;;;;;5012361;28;20460;-81
2022/09/30 13:11:32;;;;;;;5.20;1.70;;;15.50;75.00;;;;;;5012546;28;20491;-82
2022/09/30 13:14:12;;;;;;;2.67;2.07;;;15.60;80.00;;;;;;5012143;28;20856;-81
2022/09/30 13:17:12;;;;;;;5.60;1.90;;;15.40;73.00;;;;;;5012521;28;20456;-81
2022/09/30 13:19:40;;;;;;;3.67;1.80;;;15.40;76.40;;;;;;5001139;28;20488;-82
2022/09/30 13:22:42;;;;;;;4.27;1.63;;;15.20;75.10;;;;;;5010007;28;20452;-82
2022/09/30 13:25:15;;;;;;;1.40;1.30;;;15.30;74.20;;;;;;5007867;28;20480;-83
2022/09/30 13:27:44;;;;;;;1.67;1.57;;;15.00;80.20;;;;;;5012604;28;20539;-82
2022/09/30 13:30:32;;;;;;;3.30;1.53;;;15.10;81.80;;;;;;5006276;28;20468;-82
2022/09/30 13:33:25;;;;;;;2.93;1.40;;;15.00;75.20;;;;;;5009112;28;21034;-82
2022/09/30 13:35:53;;;;;;;3.83;1.57;;;15.10;80.70;;;;;;5008614;28;20496;-82
2022/09/30 13:38:32;;;;;;;1.40;1.30;;;15.10;82.50;;;;;;5010976;28;20472;-81
2022/09/30 13:41:07;;;;;;;3.10;1.30;;;15.30;84.00;;;;;;5009055;28;20460;-81
2022/09/30 13:43:40;;;;;;;1.90;1.50;;;15.30;83.10;;;;;;5010192;28;20468;-81
2022/09/30 13:46:17;;;;;;;3.30;1.77;;;15.50;84.40;;;;;;5013886;28;20479;-82
2022/09/30 13:48:51;;;;;;;3.83;1.80;;;15.70;82.00;;;;;;5013001;28;20932;-83
2022/09/30 13:51:21;;;;;;;3.43;1.53;;;15.90;82.40;;;;;;5013607;28;20468;-82